sensor_id;sensor_type;location;lat;lon;timestamp;pressure;altitude;pressure_sealevel;temperature;humidity
46347;BME280;32057;47.830;19.046;2023-04-28T00:01:15;100792.44;;;2.08;100.00
46347;BME280;32057;47.830;19.046;2023-04-28T00:03:41;100793.03;;;2.04;100.00
46347;BME280;32057;47.830;19.046;2023-04-28T00:06:06;100790.44;;;1.76;100.00
46347;BME280;32057;47.830;19.046;2023-04-28T00:08:32;100795.84;;;1.67;100.00
46347;BME280;32057;47.830;19.046;2023-04-28T00:10:57;100788.56;;;1.60;100.00
46347;BME280;32057;47.830;19.046;2023-04-28T00:13:23;100789.56;;;1.49;100.00
46347;BME280;32057;47.830;19.046;2023-04-28T00:15:49;100796.88;;;1.56;100.00
46347;BME280;32057;47.830;19.046;2023-04-28T00:18:17;100792.03;;;1.61;100.00
46347;BME280;32057;47.830;19.046;2023-04-28T00:20:43;100793.00;;;1.63;100.00
46347;BME280;32057;47.830;19.046;2023-04-28T00:23:08;100791.41;;;1.65;100.00
46347;BME280;32057;47.830;19.046;2023-04-28T00:25:34;100795.47;;;1.61;100.00
46347;BME280;32057;47.830;19.046;2023-04-28T00:27:59;100793.31;;;1.54;100.00
46347;BME280;32057;47.830;19.046;2023-04-28T00:30:26;100798.81;;;1.47;100.00
46347;BME280;32057;47.830;19.046;2023-04-28T00:32:51;100800.41;;;1.58;100.00
46347;BME280;32057;47.830;19.046;2023-04-28T00:35:16;100800.69;;;1.63;100.00
46347;BME280;32057;47.830;19.046;2023-04-28T00:37:42;100800.00;;;1.65;100.00
46347;BME280;32057;47.830;19.046;2023-04-28T00:40:08;100797.44;;;1.65;100.00
46347;BME280;32057;47.830;19.046;2023-04-28T00:42:33;100799.28;;;1.68;100.00
46347;BME280;32057;47.830;19.046;2023-04-28T00:44:59;100796.66;;;1.66;100.00
46347;BME280;32057;47.830;19.046;2023-04-28T00:47:33;100792.13;;;1.62;100.00
46347;BME280;32057;47.830;19.046;2023-04-28T00:49:59;100795.06;;;1.55;100.00
46347;BME280;32057;47.830;19.046;2023-04-28T00:52:26;100802.38;;;1.49;100.00
46347;BME280;32057;47.830;19.046;2023-04-28T00:54:51;100797.66;;;1.28;100.00
46347;BME280;32057;47.830;19.046;2023-04-28T00:57:17;100798.03;;;1.21;100.00
46347;BME280;32057;47.830;19.046;2023-04-28T00:59:43;100798.50;;;1.15;100.00
46347;BME280;32057;47.830;19.046;2023-04-28T01:02:08;100798.81;;;1.07;100.00
46347;BME280;32057;47.830;19.046;2023-04-28T01:04:34;100802.50;;;0.85;100.00
46347;BME280;32057;47.830;19.046;2023-04-28T01:07:00;100800.94;;;0.87;100.00
46347;BME280;32057;47.830;19.046;2023-04-28T01:09:26;100810.66;;;0.79;100.00
46347;BME280;32057;47.830;19.046;2023-04-28T01:11:51;100808.91;;;0.92;100.00
46347;BME280;32057;47.830;19.046;2023-04-28T01:14:17;100810.69;;;0.93;100.00
46347;BME280;32057;47.830;19.046;2023-04-28T01:16:42;100801.72;;;0.99;100.00
46347;BME280;32057;47.830;19.046;2023-04-28T01:19:15;100810.63;;;1.05;100.00
46347;BME280;32057;47.830;19.046;2023-04-28T01:21:41;100806.19;;;1.15;100.00
46347;BME280;32057;47.830;19.046;2023-04-28T01:24:06;100808.50;;;1.24;100.00
46347;BME280;32057;47.830;19.046;2023-04-28T01:26:32;100813.09;;;1.30;100.00
46347;BME280;32057;47.830;19.046;2023-04-28T01:28:57;100818.44;;;1.33;100.00
46347;BME280;32057;47.830;19.046;2023-04-28T01:31:23;100812.03;;;1.26;100.00
46347;BME280;32057;47.830;19.046;2023-04-28T01:33:48;100813.59;;;1.11;100.00
46347;BME280;32057;47.830;19.046;2023-04-28T01:36:13;100817.13;;;0.99;100.00
46347;BME280;32057;47.830;19.046;2023-04-28T01:38:39;100813.84;;;0.89;100.00
46347;BME280;32057;47.830;19.046;2023-04-28T01:41:04;100819.28;;;0.93;100.00
46347;BME280;32057;47.830;19.046;2023-04-28T01:43:30;100816.22;;;0.99;100.00
46347;BME280;32057;47.830;19.046;2023-04-28T01:45:55;100819.66;;;0.99;100.00
46347;BME280;32057;47.830;19.046;2023-04-28T01:48:20;100810.00;;;0.95;100.00
46347;BME280;32057;47.830;19.046;2023-04-28T01:50:46;100813.56;;;0.97;100.00
46347;BME280;32057;47.830;19.046;2023-04-28T01:53:11;100810.75;;;1.06;100.00
46347;BME280;32057;47.830;19.046;2023-04-28T01:55:38;100816.13;;;0.97;100.00
46347;BME280;32057;47.830;19.046;2023-04-28T01:58:03;100818.50;;;0.94;100.00
46347;BME280;32057;47.830;19.046;2023-04-28T02:00:29;100819.38;;;0.95;100.00
46347;BME280;32057;47.830;19.046;2023-04-28T02:02:54;100827.34;;;0.99;100.00
46347;BME280;32057;47.830;19.046;2023-04-28T02:05:20;100826.72;;;0.77;100.00
46347;BME280;32057;47.830;19.046;2023-04-28T02:07:45;100830.50;;;0.57;100.00
46347;BME280;32057;47.830;19.046;2023-04-28T02:10:11;100827.72;;;0.29;100.00
46347;BME280;32057;47.830;19.046;2023-04-28T02:12:36;100828.63;;;0.17;100.00
46347;BME280;32057;47.830;19.046;2023-04-28T02:15:02;100832.41;;;0.23;100.00
46347;BME280;32057;47.830;19.046;2023-04-28T02:17:30;100833.94;;;0.32;100.00
46347;BME280;32057;47.830;19.046;2023-04-28T02:19:56;100835.66;;;0.45;100.00
46347;BME280;32057;47.830;19.046;2023-04-28T02:22:22;100836.50;;;0.57;100.00
46347;BME280;32057;47.830;19.046;2023-04-28T02:24:47;100833.13;;;0.70;100.00
46347;BME280;32057;47.830;19.046;2023-04-28T02:27:13;100841.09;;;0.75;100.00
46347;BME280;32057;47.830;19.046;2023-04-28T02:29:38;100841.31;;;0.78;100.00
46347;BME280;32057;47.830;19.046;2023-04-28T02:32:04;100841.31;;;0.78;100.00
46347;BME280;32057;47.830;19.046;2023-04-28T02:34:29;100846.97;;;0.61;100.00
46347;BME280;32057;47.830;19.046;2023-04-28T02:36:55;100848.69;;;0.48;100.00
46347;BME280;32057;47.830;19.046;2023-04-28T02:39:20;100845.47;;;0.39;100.00
46347;BME280;32057;47.830;19.046;2023-04-28T02:41:49;100844.06;;;0.31;100.00
46347;BME280;32057;47.830;19.046;2023-04-28T02:44:15;100852.16;;;0.37;100.00
46347;BME280;32057;47.830;19.046;2023-04-28T02:46:41;100852.44;;;0.16;100.00
46347;BME280;32057;47.830;19.046;2023-04-28T02:49:06;100847.78;;;0.11;100.00
46347;BME280;32057;47.830;19.046;2023-04-28T02:51:31;100845.47;;;0.02;100.00
46347;BME280;32057;47.830;19.046;2023-04-28T02:53:57;100850.59;;;0.02;100.00
46347;BME280;32057;47.830;19.046;2023-04-28T02:56:22;100844.47;;;0.00;100.00
46347;BME280;32057;47.830;19.046;2023-04-28T02:58:48;100846.94;;;-0.13;100.00
46347;BME280;32057;47.830;19.046;2023-04-28T03:01:13;100842.59;;;-0.26;100.00
46347;BME280;32057;47.830;19.046;2023-04-28T03:03:39;100839.41;;;-0.24;100.00
46347;BME280;32057;47.830;19.046;2023-04-28T03:06:04;100840.94;;;-0.14;100.00
46347;BME280;32057;47.830;19.046;2023-04-28T03:08:30;100845.47;;;0.02;100.00
46347;BME280;32057;47.830;19.046;2023-04-28T03:10:55;100843.34;;;0.08;100.00
46347;BME280;32057;47.830;19.046;2023-04-28T03:13:21;100839.78;;;0.06;100.00
46347;BME280;32057;47.830;19.046;2023-04-28T03:15:46;100846.91;;;0.10;100.00
46347;BME280;32057;47.830;19.046;2023-04-28T03:18:12;100845.34;;;0.12;100.00
46347;BME280;32057;47.830;19.046;2023-04-28T03:20:37;100840.31;;;0.14;100.00
46347;BME280;32057;47.830;19.046;2023-04-28T03:23:02;100843.34;;;0.08;100.00
46347;BME280;32057;47.830;19.046;2023-04-28T03:25:28;100842.41;;;0.19;100.00
46347;BME280;32057;47.830;19.046;2023-04-28T03:27:54;100842.84;;;0.26;100.00
46347;BME280;32057;47.830;19.046;2023-04-28T03:30:20;100849.94;;;0.30;100.00
46347;BME280;32057;47.830;19.046;2023-04-28T03:32:45;100847.50;;;0.31;100.00
46347;BME280;32057;47.830;19.046;2023-04-28T03:35:10;100846.75;;;0.21;100.00
46347;BME280;32057;47.830;19.046;2023-04-28T03:37:36;100841.09;;;0.13;100.00
46347;BME280;32057;47.830;19.046;2023-04-28T03:40:01;100848.53;;;0.22;100.00
46347;BME280;32057;47.830;19.046;2023-04-28T03:42:27;100848.44;;;0.20;100.00
46347;BME280;32057;47.830;19.046;2023-04-28T03:44:52;100851.31;;;0.25;100.00
46347;BME280;32057;47.830;19.046;2023-04-28T03:47:18;100851.75;;;0.31;100.00
46347;BME280;32057;47.830;19.046;2023-04-28T03:49:43;100844.47;;;0.37;100.00
46347;BME280;32057;47.830;19.046;2023-04-28T03:52:09;100856.25;;;0.47;100.00
46347;BME280;32057;47.830;19.046;2023-04-28T03:54:34;100854.78;;;0.50;100.00
46347;BME280;32057;47.830;19.046;2023-04-28T03:56:59;100857.25;;;0.49;100.00
46347;BME280;32057;47.830;19.046;2023-04-28T03:59:26;100852.19;;;0.25;100.00
46347;BME280;32057;47.830;19.046;2023-04-28T04:01:51;100852.66;;;0.08;100.00
46347;BME280;32057;47.830;19.046;2023-04-28T04:04:17;100851.03;;;0.08;100.00
46347;BME280;32057;47.830;19.046;2023-04-28T04:06:42;100847.91;;;0.12;100.00
46347;BME280;32057;47.830;19.046;2023-04-28T04:09:08;100860.00;;;0.27;100.00
46347;BME280;32057;47.830;19.046;2023-04-28T04:11:33;100857.28;;;0.37;100.00
46347;BME280;32057;47.830;19.046;2023-04-28T04:13:59;100861.56;;;0.25;100.00
46347;BME280;32057;47.830;19.046;2023-04-28T04:16:24;100859.09;;;0.26;100.00
46347;BME280;32057;47.830;19.046;2023-04-28T04:18:50;100855.97;;;0.30;100.00
46347;BME280;32057;47.830;19.046;2023-04-28T04:21:15;100859.50;;;0.44;100.00
46347;BME280;32057;47.830;19.046;2023-04-28T04:23:40;100858.66;;;0.57;100.00
46347;BME280;32057;47.830;19.046;2023-04-28T04:26:06;100856.81;;;0.68;100.00
46347;BME280;32057;47.830;19.046;2023-04-28T04:28:31;100855.53;;;0.86;100.00
46347;BME280;32057;47.830;19.046;2023-04-28T04:30:57;100861.81;;;1.16;100.00
46347;BME280;32057;47.830;19.046;2023-04-28T04:33:22;100862.06;;;1.46;100.00
46347;BME280;32057;47.830;19.046;2023-04-28T04:35:48;100864.91;;;1.77;100.00
46347;BME280;32057;47.830;19.046;2023-04-28T04:38:13;100859.91;;;2.34;100.00
46347;BME280;32057;47.830;19.046;2023-04-28T04:40:39;100854.91;;;2.50;100.00
46347;BME280;32057;47.830;19.046;2023-04-28T04:43:04;100850.84;;;2.82;100.00
46347;BME280;32057;47.830;19.046;2023-04-28T04:45:29;100849.97;;;2.96;100.00
46347;BME280;32057;47.830;19.046;2023-04-28T04:47:55;100846.25;;;3.06;100.00
46347;BME280;32057;47.830;19.046;2023-04-28T04:50:20;100853.75;;;2.88;100.00
46347;BME280;32057;47.830;19.046;2023-04-28T04:52:46;100855.31;;;2.71;100.00
46347;BME280;32057;47.830;19.046;2023-04-28T04:55:11;100860.78;;;2.63;100.00
46347;BME280;32057;47.830;19.046;2023-04-28T04:57:37;100853.66;;;2.72;100.00
46347;BME280;32057;47.830;19.046;2023-04-28T05:00:03;100849.25;;;2.84;100.00
46347;BME280;32057;47.830;19.046;2023-04-28T05:02:29;100852.69;;;2.99;100.00
46347;BME280;32057;47.830;19.046;2023-04-28T05:04:54;100846.25;;;3.21;100.00
46347;BME280;32057;47.830;19.046;2023-04-28T05:07:20;100845.75;;;3.42;100.00
46347;BME280;32057;47.830;19.046;2023-04-28T05:09:45;100853.34;;;3.55;100.00
46347;BME280;32057;47.830;19.046;2023-04-28T05:12:11;100849.22;;;3.73;100.00
46347;BME280;32057;47.830;19.046;2023-04-28T05:14:36;100853.91;;;3.95;100.00
46347;BME280;32057;47.830;19.046;2023-04-28T05:17:02;100852.06;;;4.09;100.00
46347;BME280;32057;47.830;19.046;2023-04-28T05:19:27;100844.41;;;4.42;100.00
46347;BME280;32057;47.830;19.046;2023-04-28T05:21:52;100846.97;;;4.75;100.00
46347;BME280;32057;47.830;19.046;2023-04-28T05:24:22;100848.69;;;5.09;100.00
46347;BME280;32057;47.830;19.046;2023-04-28T05:26:49;100852.75;;;5.38;98.95
46347;BME280;32057;47.830;19.046;2023-04-28T05:29:15;100855.81;;;5.65;100.00
46347;BME280;32057;47.830;19.046;2023-04-28T05:31:40;100855.06;;;5.86;97.91
46347;BME280;32057;47.830;19.046;2023-04-28T05:34:06;100853.56;;;6.09;95.43
46347;BME280;32057;47.830;19.046;2023-04-28T05:36:31;100847.56;;;6.28;95.88
46347;BME280;32057;47.830;19.046;2023-04-28T05:38:56;100841.59;;;6.48;93.91
46347;BME280;32057;47.830;19.046;2023-04-28T05:41:22;100852.91;;;6.70;92.15
46347;BME280;32057;47.830;19.046;2023-04-28T05:43:48;100841.19;;;6.97;93.96
46347;BME280;32057;47.830;19.046;2023-04-28T05:46:16;100840.31;;;7.18;90.45
46347;BME280;32057;47.830;19.046;2023-04-28T05:48:41;100844.13;;;7.47;88.89
46347;BME280;32057;47.830;19.046;2023-04-28T05:51:06;100838.19;;;7.71;86.76
46347;BME280;32057;47.830;19.046;2023-04-28T05:53:32;100837.72;;;8.04;83.71
46347;BME280;32057;47.830;19.046;2023-04-28T05:55:57;100836.13;;;8.30;85.33
46347;BME280;32057;47.830;19.046;2023-04-28T05:58:23;100834.16;;;8.45;85.52
46347;BME280;32057;47.830;19.046;2023-04-28T06:00:48;100835.88;;;8.69;86.81
46347;BME280;32057;47.830;19.046;2023-04-28T06:03:13;100841.31;;;8.76;85.00
46347;BME280;32057;47.830;19.046;2023-04-28T06:05:43;100835.66;;;8.87;83.80
46347;BME280;32057;47.830;19.046;2023-04-28T06:08:08;100833.41;;;8.97;81.82
46347;BME280;32057;47.830;19.046;2023-04-28T06:10:33;100839.03;;;9.10;79.26
46347;BME280;32057;47.830;19.046;2023-04-28T06:12:59;100839.41;;;9.21;79.77
46347;BME280;32057;47.830;19.046;2023-04-28T06:15:25;100840.91;;;9.40;80.96
46347;BME280;32057;47.830;19.046;2023-04-28T06:17:51;100843.38;;;9.62;82.05
46347;BME280;32057;47.830;19.046;2023-04-28T06:20:16;100844.41;;;9.67;81.86
46347;BME280;32057;47.830;19.046;2023-04-28T06:22:42;100854.47;;;9.84;82.78
46347;BME280;32057;47.830;19.046;2023-04-28T06:25:08;100856.44;;;9.92;78.23
46347;BME280;32057;47.830;19.046;2023-04-28T06:27:33;100852.22;;;9.96;75.76
46347;BME280;32057;47.830;19.046;2023-04-28T06:29:59;100850.69;;;10.01;78.15
46347;BME280;32057;47.830;19.046;2023-04-28T06:32:24;100852.72;;;10.11;78.69
46347;BME280;32057;47.830;19.046;2023-04-28T06:34:49;100852.81;;;10.14;78.63
46347;BME280;32057;47.830;19.046;2023-04-28T06:37:15;100850.69;;;10.30;79.96
46347;BME280;32057;47.830;19.046;2023-04-28T06:39:41;100841.03;;;10.54;75.81
46347;BME280;32057;47.830;19.046;2023-04-28T06:42:06;100847.63;;;10.73;73.42
46347;BME280;32057;47.830;19.046;2023-04-28T06:44:32;100839.16;;;10.82;70.67
46347;BME280;32057;47.830;19.046;2023-04-28T06:46:57;100840.41;;;10.95;68.05
46347;BME280;32057;47.830;19.046;2023-04-28T06:49:22;100843.78;;;10.91;67.26
46347;BME280;32057;47.830;19.046;2023-04-28T06:51:48;100841.13;;;10.89;67.06
46347;BME280;32057;47.830;19.046;2023-04-28T06:54:13;100843.66;;;10.88;67.61
46347;BME280;32057;47.830;19.046;2023-04-28T06:56:39;100840.34;;;10.93;67.52
46347;BME280;32057;47.830;19.046;2023-04-28T06:59:04;100833.47;;;10.95;69.65
46347;BME280;32057;47.830;19.046;2023-04-28T07:01:30;100844.75;;;10.94;67.28
46347;BME280;32057;47.830;19.046;2023-04-28T07:03:55;100841.16;;;10.91;64.03
46347;BME280;32057;47.830;19.046;2023-04-28T07:06:21;100841.06;;;10.88;66.19
46347;BME280;32057;47.830;19.046;2023-04-28T07:08:46;100837.09;;;11.01;66.65
46347;BME280;32057;47.830;19.046;2023-04-28T07:11:11;100838.94;;;11.05;67.04
46347;BME280;32057;47.830;19.046;2023-04-28T07:13:37;100836.31;;;11.05;63.12
46347;BME280;32057;47.830;19.046;2023-04-28T07:16:03;100830.97;;;11.33;65.22
46347;BME280;32057;47.830;19.046;2023-04-28T07:18:28;100836.09;;;11.65;66.78
46347;BME280;32057;47.830;19.046;2023-04-28T07:20:54;100820.69;;;11.74;65.39
46347;BME280;32057;47.830;19.046;2023-04-28T07:23:19;100826.41;;;11.96;65.79
46347;BME280;32057;47.830;19.046;2023-04-28T07:25:45;100814.53;;;12.09;67.08
46347;BME280;32057;47.830;19.046;2023-04-28T07:28:11;100813.81;;;12.16;66.07
46347;BME280;32057;47.830;19.046;2023-04-28T07:30:37;100814.75;;;12.20;65.48
46347;BME280;32057;47.830;19.046;2023-04-28T07:33:02;100810.63;;;12.29;65.38
46347;BME280;32057;47.830;19.046;2023-04-28T07:35:28;100811.38;;;12.24;67.97
46347;BME280;32057;47.830;19.046;2023-04-28T07:37:53;100813.81;;;12.16;65.77
46347;BME280;32057;47.830;19.046;2023-04-28T07:40:19;100815.63;;;12.19;66.22
46347;BME280;32057;47.830;19.046;2023-04-28T07:42:46;100811.56;;;12.33;64.70
46347;BME280;32057;47.830;19.046;2023-04-28T07:45:13;100806.59;;;12.45;64.63
46347;BME280;32057;47.830;19.046;2023-04-28T07:47:40;100808.19;;;12.37;61.97
46347;BME280;32057;47.830;19.046;2023-04-28T07:50:06;100810.78;;;12.37;62.26
46347;BME280;32057;47.830;19.046;2023-04-28T07:52:32;100808.88;;;12.30;60.88
46347;BME280;32057;47.830;19.046;2023-04-28T07:54:58;100801.00;;;12.27;63.58
46347;BME280;32057;47.830;19.046;2023-04-28T07:57:24;100804.56;;;12.30;64.06
46347;BME280;32057;47.830;19.046;2023-04-28T07:59:50;100797.63;;;12.31;63.89
46347;BME280;32057;47.830;19.046;2023-04-28T08:02:15;100795.97;;;12.36;65.09
46347;BME280;32057;47.830;19.046;2023-04-28T08:04:41;100784.13;;;12.53;65.39
46347;BME280;32057;47.830;19.046;2023-04-28T08:07:07;100784.63;;;12.80;59.98
46347;BME280;32057;47.830;19.046;2023-04-28T08:09:33;100783.03;;;12.86;60.92
46347;BME280;32057;47.830;19.046;2023-04-28T08:11:59;100782.31;;;12.95;59.25
46347;BME280;32057;47.830;19.046;2023-04-28T08:14:26;100777.53;;;13.21;57.11
46347;BME280;32057;47.830;19.046;2023-04-28T08:16:51;100779.66;;;13.44;56.85
46347;BME280;32057;47.830;19.046;2023-04-28T08:19:17;100785.22;;;13.65;54.95
46347;BME280;32057;47.830;19.046;2023-04-28T08:21:43;100767.91;;;13.73;52.26
46347;BME280;32057;47.830;19.046;2023-04-28T08:24:08;100761.94;;;13.84;55.28
46347;BME280;32057;47.830;19.046;2023-04-28T08:26:36;100757.78;;;13.97;52.76
46347;BME280;32057;47.830;19.046;2023-04-28T08:29:02;100756.94;;;13.99;54.00
46347;BME280;32057;47.830;19.046;2023-04-28T08:31:27;100744.03;;;14.13;51.41
46347;BME280;32057;47.830;19.046;2023-04-28T08:33:52;100745.09;;;14.29;51.73
46347;BME280;32057;47.830;19.046;2023-04-28T08:36:18;100743.44;;;14.37;51.50
46347;BME280;32057;47.830;19.046;2023-04-28T08:38:44;100735.63;;;14.42;51.56
46347;BME280;32057;47.830;19.046;2023-04-28T08:41:15;100741.84;;;14.51;50.59
46347;BME280;32057;47.830;19.046;2023-04-28T08:43:40;100740.09;;;14.50;48.85
46347;BME280;32057;47.830;19.046;2023-04-28T08:46:08;100741.94;;;14.58;52.27
46347;BME280;32057;47.830;19.046;2023-04-28T08:48:42;100742.03;;;14.64;48.98
46347;BME280;32057;47.830;19.046;2023-04-28T08:51:15;100730.75;;;14.72;50.28
46347;BME280;32057;47.830;19.046;2023-04-28T08:53:44;100729.13;;;14.82;49.43
46347;BME280;32057;47.830;19.046;2023-04-28T08:56:14;100716.91;;;14.87;52.37
46347;BME280;32057;47.830;19.046;2023-04-28T08:58:41;100721.44;;;15.04;49.54
46347;BME280;32057;47.830;19.046;2023-04-28T09:01:07;100718.88;;;15.13;47.59
46347;BME280;32057;47.830;19.046;2023-04-28T09:03:33;100719.81;;;15.18;46.18
46347;BME280;32057;47.830;19.046;2023-04-28T09:06:00;100719.91;;;15.33;51.17
46347;BME280;32057;47.830;19.046;2023-04-28T09:08:26;100717.38;;;15.49;43.48
46347;BME280;32057;47.830;19.046;2023-04-28T09:11:09;100719.09;;;15.45;41.92
46347;BME280;32057;47.830;19.046;2023-04-28T09:13:35;100714.75;;;15.46;43.82
46347;BME280;32057;47.830;19.046;2023-04-28T09:16:02;100731.34;;;15.43;43.14
46347;BME280;32057;47.830;19.046;2023-04-28T09:18:28;100720.00;;;15.49;43.61
46347;BME280;32057;47.830;19.046;2023-04-28T09:21:05;100717.38;;;15.47;44.95
46347;BME280;32057;47.830;19.046;2023-04-28T09:23:31;100715.66;;;15.48;45.41
46347;BME280;32057;47.830;19.046;2023-04-28T09:26:06;100714.72;;;15.38;43.58
46347;BME280;32057;47.830;19.046;2023-04-28T09:28:33;100713.97;;;15.58;47.91
46347;BME280;32057;47.830;19.046;2023-04-28T09:30:59;100707.06;;;15.75;50.62
46347;BME280;32057;47.830;19.046;2023-04-28T09:33:25;100701.03;;;15.90;43.23
46347;BME280;32057;47.830;19.046;2023-04-28T09:35:51;100708.88;;;15.85;44.03
46347;BME280;32057;47.830;19.046;2023-04-28T09:38:19;100700.09;;;15.79;46.92
46347;BME280;32057;47.830;19.046;2023-04-28T09:40:58;100695.75;;;15.78;44.59
46347;BME280;32057;47.830;19.046;2023-04-28T09:43:28;100703.53;;;15.70;45.42
46347;BME280;32057;47.830;19.046;2023-04-28T09:45:55;100698.34;;;15.79;41.10
46347;BME280;32057;47.830;19.046;2023-04-28T09:48:32;100687.75;;;15.67;39.68
46347;BME280;32057;47.830;19.046;2023-04-28T09:50:59;100680.75;;;15.60;41.98
46347;BME280;32057;47.830;19.046;2023-04-28T09:53:26;100697.38;;;15.66;44.26
46347;BME280;32057;47.830;19.046;2023-04-28T09:55:52;100685.16;;;15.71;41.73
46347;BME280;32057;47.830;19.046;2023-04-28T09:58:19;100687.06;;;16.03;44.69
46347;BME280;32057;47.830;19.046;2023-04-28T10:00:56;100682.78;;;16.33;43.43
46347;BME280;32057;47.830;19.046;2023-04-28T10:03:24;100672.31;;;16.36;41.69
46347;BME280;32057;47.830;19.046;2023-04-28T10:05:50;100675.81;;;16.32;43.72
46347;BME280;32057;47.830;19.046;2023-04-28T10:08:20;100677.53;;;16.33;41.83
46347;BME280;32057;47.830;19.046;2023-04-28T10:10:47;100668.78;;;16.26;44.17
46347;BME280;32057;47.830;19.046;2023-04-28T10:13:17;100667.91;;;16.23;42.10
46347;BME280;32057;47.830;19.046;2023-04-28T10:15:44;100654.75;;;16.13;42.53
46347;BME280;32057;47.830;19.046;2023-04-28T10:18:11;100653.84;;;16.05;43.45
46347;BME280;32057;47.830;19.046;2023-04-28T10:20:38;100661.66;;;15.93;43.89
46347;BME280;32057;47.830;19.046;2023-04-28T10:26:12;100646.75;;;15.83;44.70
46347;BME280;32057;47.830;19.046;2023-04-28T10:28:48;100637.16;;;15.82;42.59
46347;BME280;32057;47.830;19.046;2023-04-28T10:31:16;100634.56;;;15.88;43.07
46347;BME280;32057;47.830;19.046;2023-04-28T10:33:43;100617.09;;;16.05;42.37
46347;BME280;32057;47.830;19.046;2023-04-28T10:36:09;100618.91;;;16.37;45.40
46347;BME280;32057;47.830;19.046;2023-04-28T10:38:36;100608.41;;;16.45;43.66
46347;BME280;32057;47.830;19.046;2023-04-28T10:41:32;100612.78;;;16.41;44.64
46347;BME280;32057;47.830;19.046;2023-04-28T10:43:58;100604.03;;;16.48;43.68
46347;BME280;32057;47.830;19.046;2023-04-28T10:46:23;100602.28;;;16.52;43.22
46347;BME280;32057;47.830;19.046;2023-04-28T10:56:21;100599.66;;;16.50;45.92
46347;BME280;32057;47.830;19.046;2023-04-28T10:58:49;100605.78;;;16.51;40.64
46347;BME280;32057;47.830;19.046;2023-04-28T11:03:54;100597.03;;;16.50;38.54
46347;BME280;32057;47.830;19.046;2023-04-28T11:06:33;100597.91;;;16.56;38.09
46347;BME280;32057;47.830;19.046;2023-04-28T11:09:02;100589.13;;;16.47;42.36
46347;BME280;32057;47.830;19.046;2023-04-28T11:11:32;100583.03;;;16.44;42.22
46347;BME280;32057;47.830;19.046;2023-04-28T11:16:57;100569.88;;;16.55;42.59
46347;BME280;32057;47.830;19.046;2023-04-28T11:19:40;100577.78;;;16.58;42.17
46347;BME280;32057;47.830;19.046;2023-04-28T11:22:19;100572.50;;;16.55;38.98
46347;BME280;32057;47.830;19.046;2023-04-28T11:24:59;100573.38;;;16.44;38.14
46347;BME280;32057;47.830;19.046;2023-04-28T11:27:29;100566.38;;;16.48;41.92
46347;BME280;32057;47.830;19.046;2023-04-28T11:29:55;100561.13;;;16.48;42.34
46347;BME280;32057;47.830;19.046;2023-04-28T11:32:29;100568.13;;;16.37;43.42
46347;BME280;32057;47.830;19.046;2023-04-28T11:34:55;100561.13;;;16.42;38.39
46347;BME280;32057;47.830;19.046;2023-04-28T11:37:20;100546.25;;;16.50;42.96
46347;BME280;32057;47.830;19.046;2023-04-28T11:39:47;100547.97;;;16.63;40.88
46347;BME280;32057;47.830;19.046;2023-04-28T11:42:12;100548.84;;;16.96;42.51
46347;BME280;32057;47.830;19.046;2023-04-28T11:44:38;100547.03;;;17.09;38.12
46347;BME280;32057;47.830;19.046;2023-04-28T11:47:04;100551.44;;;17.08;37.72
46347;BME280;32057;47.830;19.046;2023-04-28T11:49:41;100552.34;;;16.97;37.78
46347;BME280;32057;47.830;19.046;2023-04-28T11:52:08;100549.69;;;17.12;41.08
46347;BME280;32057;47.830;19.046;2023-04-28T11:54:34;100547.84;;;17.31;40.50
46347;BME280;32057;47.830;19.046;2023-04-28T11:57:00;100541.59;;;17.58;43.03
46347;BME280;32057;47.830;19.046;2023-04-28T11:59:32;100551.97;;;17.89;38.43
46347;BME280;32057;47.830;19.046;2023-04-28T12:02:00;100538.75;;;17.98;42.64
46347;BME280;32057;47.830;19.046;2023-04-28T12:04:40;100536.13;;;18.01;36.01
46347;BME280;32057;47.830;19.046;2023-04-28T12:09:47;100534.44;;;17.88;36.72
46347;BME280;32057;47.830;19.046;2023-04-28T12:12:28;100525.00;;;17.44;38.54
46347;BME280;32057;47.830;19.046;2023-04-28T12:14:58;100522.44;;;17.28;36.23
46347;BME280;32057;47.830;19.046;2023-04-28T12:17:27;100519.88;;;17.18;38.38
46347;BME280;32057;47.830;19.046;2023-04-28T12:19:54;100520.75;;;17.12;39.59
46347;BME280;32057;47.830;19.046;2023-04-28T12:22:20;100518.16;;;16.98;42.17
46347;BME280;32057;47.830;19.046;2023-04-28T12:25:04;100511.19;;;16.85;39.66
46347;BME280;32057;47.830;19.046;2023-04-28T12:27:30;100512.03;;;16.85;39.40
46347;BME280;32057;47.830;19.046;2023-04-28T12:29:56;100512.94;;;16.80;38.82
46347;BME280;32057;47.830;19.046;2023-04-28T12:32:42;100512.94;;;16.73;38.88
46347;BME280;32057;47.830;19.046;2023-04-28T12:35:08;100499.81;;;16.73;39.36
46347;BME280;32057;47.830;19.046;2023-04-28T12:37:34;100503.28;;;16.77;42.08
46347;BME280;32057;47.830;19.046;2023-04-28T12:40:02;100500.66;;;16.79;40.85
46347;BME280;32057;47.830;19.046;2023-04-28T12:42:28;100491.91;;;16.75;40.66
46347;BME280;32057;47.830;19.046;2023-04-28T12:44:54;100477.88;;;16.88;39.90
46347;BME280;32057;47.830;19.046;2023-04-28T12:47:19;100469.09;;;16.94;40.52
46347;BME280;32057;47.830;19.046;2023-04-28T12:49:45;100462.03;;;17.05;41.81
46347;BME280;32057;47.830;19.046;2023-04-28T12:52:13;100457.59;;;17.21;40.81
46347;BME280;32057;47.830;19.046;2023-04-28T12:54:38;100440.81;;;17.41;42.93
46347;BME280;32057;47.830;19.046;2023-04-28T12:57:08;100437.28;;;17.45;41.25